Huvudsida
METAR-TAF:

METAR-TAF

Flygplatser :

Vágar flygplats

Sørvágur, Färöarna, Danmark

latitud: 62-04N, longitud: 007-17W, höjd: 85 m

Aktuellt väderrapport

Denna rapport gjordes för 10 minuter sedan, klockan 21:20 UTC
Vind 12 kt från väst/sydväst
Temperatur 9°C
Fuktighet 100%
Tryck 1018 hPa
Sikt: 5000 m

METAR: EKVG 192120Z AUTO 25012KT 5000 OVC002/// 09/09 Q1018

Tid: 22:30 (21:30 UTC)

Väderprognos

Denna rapport gjordes för 6 timmar och 24 minuter sedan, klockan 15:06 UTC
Prognos gäller från 19 kl. 15 UTC till 19 kl. 21 UTC
Vind 15 kt från syd/sydväst
Sikt: 5000 m
Brutna moln på en höjd av 200 ft
Temporärt
från 19 kl. 15 UTC till 19 kl. 21 UTC
Vind 22 kt från sydväst i byarna ända upp till 40 kt
Sikt: 1200 m
Brutna moln på en höjd av 500 ft
lätt regn, duggregn, fuktdis

TAF: EKVG 191506Z 1915/1921 20015KT 5000 BKN002 TEMPO 1915/1921 23022G40KT 1200 -RADZ BR BKN005

Aktuella väderrapporter och prognoser från 4000 flygplatser (METAR- och TAF-rapporter).

De tillgängliga stationerna syns som gula och röda prickar på kartan.

För musen över prickarna för att se namnen på stationerna.

Klicka sedan för att få väderrapporter och prognoser.

För att ändra kartan: Klicka på de gröna knapparna med ett svart kors på för att zooma in; den gröna knappen med ett streck på för att zooma ut; eller på de gröna pilarna för angränsande kartor.


METAR-TAF: